createdAt,value
2022-09-15T00:01:21.314Z,97325.63
2022-09-15T00:03:48.629Z,97331.72
2022-09-15T00:06:15.809Z,97328.16
2022-09-15T00:08:42.825Z,97326.28
2022-09-15T00:11:11.173Z,97323.97
2022-09-15T00:13:39.091Z,97334.66
2022-09-15T00:16:06.195Z,97325.63
2022-09-15T00:18:33.115Z,97323.75
2022-09-15T00:21:00.203Z,97314.94
2022-09-15T00:23:27.031Z,97299.22
2022-09-15T00:25:53.919Z,97302.19
2022-09-15T00:28:21.759Z,97305.75
2022-09-15T00:30:50.600Z,97313.91
2022-09-15T00:33:17.554Z,97311.19
2022-09-15T00:35:45.943Z,97320.38
2022-09-15T00:38:13.503Z,97306.56
2022-09-15T00:40:50.756Z,97299.19
2022-09-15T00:43:19.314Z,97302.56
2022-09-15T00:45:46.215Z,97294.22
2022-09-15T00:48:19.079Z,97281.41
2022-09-15T00:50:49.090Z,97277.00
2022-09-15T00:53:15.911Z,97274.28
2022-09-15T00:55:45.042Z,97275.97
2022-09-15T00:58:16.533Z,97277.88
2022-09-15T01:00:47.822Z,97278.06
2022-09-15T01:03:15.776Z,97287.91
2022-09-15T01:05:45.722Z,97282.25
2022-09-15T01:08:47.658Z,97281.41
2022-09-15T01:11:17.041Z,97274.28
2022-09-15T01:13:44.579Z,97275.16
2022-09-15T01:16:33.045Z,97273.44
2022-09-15T01:19:25.028Z,97274.09
2022-09-15T01:21:56.810Z,97275.16
2022-09-15T01:24:28.855Z,97282.44
2022-09-15T01:27:40.509Z,97279.09
2022-09-15T01:30:12.492Z,97277.66
2022-09-15T01:33:05.263Z,97279.53
2022-09-15T01:35:52.484Z,97266.97
2022-09-15T01:38:33.877Z,97265.28
2022-09-15T01:41:11.989Z,97257.94
2022-09-15T01:44:05.969Z,97252.69
2022-09-15T01:46:38.089Z,97244.13
2022-09-15T01:49:05.182Z,97250.81
2022-09-15T01:51:32.061Z,97247.91
2022-09-15T01:53:59.809Z,97244.31
2022-09-15T01:56:26.693Z,97237.66
2022-09-15T01:58:53.662Z,97239.72
2022-09-15T02:01:47.229Z,97230.25
2022-09-15T02:04:36.785Z,97227.56
2022-09-15T02:07:07.208Z,97235.75
2022-09-15T02:09:39.057Z,97226.75
2022-09-15T02:12:36.809Z,97230.31
2022-09-15T02:15:10.589Z,97230.31
2022-09-15T02:17:42.209Z,97224.22
2022-09-15T02:20:16.208Z,97230.91
2022-09-15T02:22:48.701Z,97236.81
2022-09-15T02:25:18.405Z,97224.22
2022-09-15T02:27:48.882Z,97228.16
2022-09-15T02:30:16.559Z,97229.88
2022-09-15T02:32:56.254Z,97219.81
2022-09-15T02:35:24.977Z,97216.66
2022-09-15T02:37:51.766Z,97217.28
2022-09-15T02:40:19.321Z,97217.47
2022-09-15T02:42:57.286Z,97213.72
2022-09-15T02:45:24.932Z,97217.72
2022-09-15T02:47:52.046Z,97214.97
2022-09-15T02:50:19.121Z,97222.91
2022-09-15T02:52:46.268Z,97216.44
2022-09-15T02:55:13.326Z,97214.13
2022-09-15T02:57:40.299Z,97224.19
2022-09-15T03:00:14.629Z,97217.47
2022-09-15T03:02:42.980Z,97225.22
2022-09-15T03:05:10.031Z,97224.19
2022-09-15T03:07:38.128Z,97209.72
2022-09-15T03:10:06.369Z,97211.59
2022-09-15T03:12:47.651Z,97209.06
2022-09-15T03:15:15.730Z,97206.56
2022-09-15T03:17:43.390Z,97209.94
2022-09-15T03:20:11.409Z,97214.94
2022-09-15T03:22:38.447Z,97207.41
2022-09-15T03:25:06.737Z,97204.69
2022-09-15T03:27:34.370Z,97202.78
2022-09-15T03:30:01.907Z,97201.97
2022-09-15T03:32:28.849Z,97191.06
2022-09-15T03:34:58.615Z,97198.59
2022-09-15T03:37:26.117Z,97207.78
2022-09-15T03:39:53.168Z,97205.72
2022-09-15T03:42:20.653Z,97198.78
2022-09-15T03:44:47.649Z,97197.09
2022-09-15T03:47:14.493Z,97191.66
2022-09-15T03:49:41.304Z,97185.19
2022-09-15T03:52:08.487Z,97192.97
2022-09-15T03:54:35.573Z,97189.38
2022-09-15T03:57:03.389Z,97194.81
2022-09-15T03:59:30.456Z,97182.88
2022-09-15T04:01:57.335Z,97178.03
2022-09-15T04:04:24.224Z,97182.47
2022-09-15T04:06:51.288Z,97183.09
2022-09-15T04:09:20.240Z,97186.44
2022-09-15T04:11:47.914Z,97184.56
2022-09-15T04:14:14.969Z,97178.47
2022-09-15T04:16:42.002Z,97174.72
2022-09-15T04:19:08.949Z,97176.81
2022-09-15T04:21:36.253Z,97174.72
2022-09-15T04:24:04.835Z,97175.94
2022-09-15T04:26:36.261Z,97180.16
2022-09-15T04:29:04.922Z,97176.63
2022-09-15T04:31:32.546Z,97179.34
2022-09-15T04:33:59.544Z,97174.72
2022-09-15T04:36:28.324Z,97176.63
2022-09-15T04:38:55.854Z,97179.97
2022-09-15T04:41:22.725Z,97167.19
2022-09-15T04:43:49.936Z,97170.53
2022-09-15T04:46:16.946Z,97168.03
2022-09-15T04:48:45.563Z,97170.53
2022-09-15T04:51:14.424Z,97166.34
2022-09-15T04:53:41.853Z,97162.38
2022-09-15T04:56:10.408Z,97164.06
2022-09-15T04:58:42.727Z,97165.72
2022-09-15T05:01:17.747Z,97174.75
2022-09-15T05:03:46.457Z,97171.41
2022-09-15T05:06:15.552Z,97171.19
2022-09-15T05:08:42.554Z,97172.25
2022-09-15T05:11:11.290Z,97174.13
2022-09-15T05:13:38.626Z,97184.59
2022-09-15T05:16:12.176Z,97188.19
2022-09-15T05:18:42.843Z,97187.13
2022-09-15T05:21:10.778Z,97181.03
2022-09-15T05:23:37.769Z,97187.31
2022-09-15T05:26:06.455Z,97192.75
2022-09-15T05:28:34.308Z,97199.50
2022-09-15T05:31:01.195Z,97203.91
2022-09-15T05:33:28.346Z,97202.03
2022-09-15T05:35:59.448Z,97217.13
2022-09-15T05:38:28.027Z,97212.72
2022-09-15T05:40:55.916Z,97225.28
2022-09-15T05:43:23.239Z,97238.72
2022-09-15T05:45:56.465Z,97255.06
2022-09-15T05:48:24.620Z,97259.91
2022-09-15T05:50:52.296Z,97265.56
2022-09-15T05:53:19.331Z,97282.53
2022-09-15T05:55:46.440Z,97282.34
2022-09-15T05:58:13.618Z,97299.09
2022-09-15T06:00:41.653Z,97302.22
2022-09-15T06:03:13.406Z,97313.75
2022-09-15T06:05:40.229Z,97315.19
2022-09-15T06:08:07.057Z,97335.31
2022-09-15T06:10:34.123Z,97333.63
2022-09-15T06:13:00.933Z,97342.44
2022-09-15T06:15:27.800Z,97333.63
2022-09-15T06:17:54.816Z,97346.22
2022-09-15T06:20:21.673Z,97343.47
2022-09-15T06:22:48.565Z,97356.91
2022-09-15T06:25:15.840Z,97352.69
2022-09-15T06:27:42.716Z,97348.06
2022-09-15T06:30:11.145Z,97366.31
2022-09-15T06:32:38.412Z,97373.44
2022-09-15T06:35:08.128Z,97379.72
2022-09-15T06:37:35.093Z,97385.19
2022-09-15T06:40:02.730Z,97393.16
2022-09-15T06:42:29.681Z,97391.25
2022-09-15T06:44:56.572Z,97395.69
2022-09-15T06:47:23.688Z,97394.00
2022-09-15T06:49:50.507Z,97410.53
2022-09-15T06:52:17.374Z,97418.13
2022-09-15T06:54:44.439Z,97423.75
2022-09-15T06:57:11.322Z,97418.13
2022-09-15T06:59:38.120Z,97433.81
2022-09-15T07:02:09.761Z,97448.91
2022-09-15T07:04:39.581Z,97459.19
2022-09-15T07:07:06.685Z,97458.53
2022-09-15T07:09:33.548Z,97456.84
2022-09-15T07:12:00.489Z,97467.53
2022-09-15T07:14:27.600Z,97456.44
2022-09-15T07:16:54.396Z,97460.88
2022-09-15T07:19:21.313Z,97470.34
2022-09-15T07:21:48.454Z,97485.19
2022-09-15T07:24:15.432Z,97485.47
2022-09-15T07:26:42.282Z,97485.28
2022-09-15T07:29:09.756Z,97492.00
2022-09-15T07:31:37.842Z,97494.91
2022-09-15T07:34:04.982Z,97503.28
2022-09-15T07:36:32.099Z,97508.78
2022-09-15T07:38:58.989Z,97519.31
2022-09-15T07:41:27.742Z,97526.09
2022-09-15T07:43:56.365Z,97529.44
2022-09-15T07:46:23.988Z,97542.88
2022-09-15T07:48:51.983Z,97543.34
2022-09-15T07:51:19.281Z,97550.25
2022-09-15T07:53:47.211Z,97549.03
2022-09-15T07:56:14.465Z,97557.22
2022-09-15T07:58:41.882Z,97551.56
2022-09-15T08:01:11.613Z,97562.47
2022-09-15T08:03:42.865Z,97574.66
2022-09-15T08:06:10.400Z,97565.28
2022-09-15T08:08:38.851Z,97562.38
2022-09-15T08:11:07.373Z,97570.75
2022-09-15T08:13:34.590Z,97569.91
2022-09-15T08:16:06.546Z,97572.66
2022-09-15T08:18:33.816Z,97578.75
2022-09-15T08:21:04.597Z,97589.25
2022-09-15T08:23:31.417Z,97596.19
2022-09-15T08:25:58.321Z,97597.88
2022-09-15T08:28:26.319Z,97585.91
2022-09-15T08:31:07.041Z,97585.09
2022-09-15T08:33:34.257Z,97585.53
2022-09-15T08:36:03.084Z,97588.06
2022-09-15T08:38:29.943Z,97599.63
2022-09-15T08:41:04.920Z,97594.16
2022-09-15T08:43:56.646Z,97595.47
2022-09-15T08:46:36.871Z,97599.69
2022-09-15T08:49:07.387Z,97596.75
2022-09-15T08:51:42.525Z,97603.72
2022-09-15T08:54:14.654Z,97598.28
2022-09-15T08:56:42.186Z,97601.38
2022-09-15T08:59:15.362Z,97601.19
2022-09-15T09:02:13.426Z,97587.56
2022-09-15T09:05:10.830Z,97590.91
2022-09-15T09:07:40.837Z,97586.97
2022-09-15T09:10:37.825Z,97591.75
2022-09-15T09:13:29.931Z,97591.56
2022-09-15T09:16:11.199Z,97591.75
2022-09-15T09:18:46.821Z,97601.63
2022-09-15T09:21:37.765Z,97597.47
2022-09-15T09:24:06.876Z,97598.97
2022-09-15T09:26:35.659Z,97599.81
2022-09-15T09:29:11.045Z,97597.06
2022-09-15T09:31:38.118Z,97594.16
2022-09-15T09:34:14.165Z,97602.34
2022-09-15T09:36:42.666Z,97601.50
2022-09-15T09:39:14.020Z,97596.69
2022-09-15T09:41:41.757Z,97604.22
2022-09-15T09:44:13.286Z,97597.53
2022-09-15T09:46:40.872Z,97598.13
2022-09-15T09:49:23.385Z,97594.16
2022-09-15T09:51:55.280Z,97596.03
2022-09-15T09:54:25.078Z,97592.28
2022-09-15T09:56:53.105Z,97590.41
2022-09-15T09:59:49.444Z,97584.53
2022-09-15T10:02:22.846Z,97591.47
2022-09-15T10:05:13.496Z,97590.66
2022-09-15T10:07:41.276Z,97576.59
2022-09-15T10:10:18.716Z,97576.16
2022-09-15T10:12:45.846Z,97582.84
2022-09-15T10:15:29.953Z,97583.03
2022-09-15T10:17:57.132Z,97590.44
2022-09-15T10:20:32.516Z,97592.78
2022-09-15T10:23:07.017Z,97595.25
2022-09-15T10:25:55.545Z,97587.06
2022-09-15T10:28:26.074Z,97575.31
2022-09-15T10:31:01.485Z,97574.47
2022-09-15T10:33:36.805Z,97574.91
2022-09-15T10:36:29.245Z,97569.22
2022-09-15T10:38:59.328Z,97574.66
2022-09-15T10:41:32.793Z,97564.59
2022-09-15T10:44:23.456Z,97551.63
2022-09-15T10:47:09.252Z,97562.56
2022-09-15T10:49:55.890Z,97561.13
2022-09-15T10:52:58.057Z,97558.41
2022-09-15T10:55:52.812Z,97550.41
2022-09-15T10:58:45.656Z,97551.72
2022-09-15T11:01:16.262Z,97555.28
2022-09-15T11:03:46.735Z,97551.47
2022-09-15T11:06:23.338Z,97554.88
2022-09-15T11:08:59.476Z,97558.88
2022-09-15T11:11:48.607Z,97551.34
2022-09-15T11:14:22.958Z,97548.00
2022-09-15T11:17:21.241Z,97545.09
2022-09-15T11:20:03.800Z,97532.06
2022-09-15T11:22:37.005Z,97535.66
2022-09-15T11:25:11.805Z,97526.84
2022-09-15T11:27:55.573Z,97525.19
2022-09-15T11:30:24.345Z,97527.28
2022-09-15T11:33:00.573Z,97511.34
2022-09-15T11:35:31.233Z,97511.97
2022-09-15T11:38:03.425Z,97501.25
2022-09-15T11:40:35.185Z,97503.22
2022-09-15T11:43:20.552Z,97493.97
2022-09-15T11:45:51.249Z,97500.91
2022-09-15T11:48:28.697Z,97503.25
2022-09-15T11:50:56.058Z,97504.09
2022-09-15T11:53:42.179Z,97499.66
2022-09-15T11:56:18.690Z,97494.63
2022-09-15T11:58:48.942Z,97497.78
2022-09-15T12:01:20.204Z,97500.75
2022-09-15T12:03:59.626Z,97493.59
2022-09-15T12:06:40.944Z,97495.09
2022-09-15T12:09:17.228Z,97489.44
2022-09-15T12:11:46.452Z,97480.16
2022-09-15T12:14:38.790Z,97480.59
2022-09-15T12:17:06.265Z,97491.28
2022-09-15T12:19:35.893Z,97502.66
2022-09-15T12:22:11.779Z,97503.75
2022-09-15T12:24:44.032Z,97494.47
2022-09-15T12:27:15.618Z,97493.66
2022-09-15T12:29:56.285Z,97498.28
2022-09-15T12:32:29.559Z,97505.84
2022-09-15T12:35:03.897Z,97501.63
2022-09-15T12:37:43.089Z,97499.75
2022-09-15T12:40:25.202Z,97491.53
2022-09-15T12:42:52.264Z,97482.53
2022-09-15T12:45:29.595Z,97481.50
2022-09-15T12:48:13.504Z,97483.56
2022-09-15T12:50:41.374Z,97488.00
2022-09-15T12:53:17.296Z,97487.59
2022-09-15T12:55:58.840Z,97486.78
2022-09-15T12:58:32.152Z,97482.75
2022-09-15T13:01:30.268Z,97488.00
2022-09-15T13:04:00.541Z,97490.13
2022-09-15T13:06:34.335Z,97485.09
2022-09-15T13:09:03.305Z,97481.72
2022-09-15T13:11:40.219Z,97481.53
2022-09-15T13:14:11.502Z,97486.56
2022-09-15T13:16:43.798Z,97495.22
2022-09-15T13:19:22.124Z,97497.72
2022-09-15T13:22:12.572Z,97500.25
2022-09-15T13:25:04.376Z,97502.34
2022-09-15T13:27:48.093Z,97495.63
2022-09-15T13:30:21.423Z,97493.94
2022-09-15T13:33:05.780Z,97491.22
2022-09-15T13:35:38.879Z,97491.22
2022-09-15T13:38:33.786Z,97496.88
2022-09-15T13:41:03.601Z,97492.25
2022-09-15T13:43:52.424Z,97491.41
2022-09-15T13:46:29.117Z,97472.69
2022-09-15T13:49:02.025Z,97467.03
2022-09-15T13:51:29.619Z,97462.84
2022-09-15T13:53:56.502Z,97473.97
2022-09-15T13:56:31.313Z,97478.34
2022-09-15T13:59:08.751Z,97471.41
2022-09-15T14:01:42.503Z,97474.34
2022-09-15T14:04:20.639Z,97473.94
2022-09-15T14:06:49.448Z,97462.16
2022-09-15T14:09:27.284Z,97457.31
2022-09-15T14:11:57.659Z,97443.66
2022-09-15T14:14:27.611Z,97442.78
2022-09-15T14:16:56.239Z,97448.69
2022-09-15T14:19:37.057Z,97429.13
2022-09-15T14:22:26.895Z,97427.69
2022-09-15T14:24:54.875Z,97415.91
2022-09-15T14:27:26.795Z,97407.50
2022-09-15T14:29:55.422Z,97406.66
2022-09-15T14:32:22.552Z,97408.75
2022-09-15T14:34:49.722Z,97409.56
2022-09-15T14:37:21.851Z,97417.13
2022-09-15T14:39:54.839Z,97407.50
2022-09-15T14:42:30.635Z,97415.88
2022-09-15T14:48:01.476Z,97411.84
2022-09-15T14:50:32.494Z,97417.88
2022-09-15T14:53:00.228Z,97425.03
2022-09-15T14:56:15.433Z,97432.59
2022-09-15T14:58:43.350Z,97445.81
2022-09-15T15:01:30.591Z,97450.63
2022-09-15T15:04:00.725Z,97458.19
2022-09-15T15:06:33.651Z,97461.97
2022-09-15T15:09:05.300Z,97461.09
2022-09-15T15:11:32.148Z,97460.91
2022-09-15T15:13:59.276Z,97464.91
2022-09-15T15:16:28.279Z,97471.59
2022-09-15T15:18:57.105Z,97483.31
2022-09-15T15:21:43.189Z,97475.97
2022-09-15T15:26:42.275Z,97478.72
2022-09-15T15:29:40.411Z,97489.81
2022-09-15T15:32:12.641Z,97503.03
2022-09-15T15:34:39.472Z,97512.06
2022-09-15T15:37:16.533Z,97506.78
2022-09-15T15:39:45.870Z,97499.63
2022-09-15T15:42:14.920Z,97496.91
2022-09-15T15:44:59.212Z,97500.06
2022-09-15T15:47:29.195Z,97512.66
2022-09-15T15:50:17.551Z,97510.13
2022-09-15T15:52:45.009Z,97521.22
2022-09-15T15:55:16.648Z,97523.72
2022-09-15T15:57:43.704Z,97526.25
2022-09-15T16:00:21.644Z,97526.25
2022-09-15T16:02:49.503Z,97525.81
2022-09-15T16:05:16.828Z,97524.13
2022-09-15T16:07:44.692Z,97524.13
2022-09-15T16:10:16.143Z,97531.47
2022-09-15T16:12:43.334Z,97541.94
2022-09-15T16:15:15.051Z,97532.72
2022-09-15T16:17:45.981Z,97527.84
2022-09-15T16:20:16.143Z,97528.88
2022-09-15T16:22:43.408Z,97529.94
2022-09-15T16:25:16.908Z,97523.63
2022-09-15T16:27:44.085Z,97538.94
2022-09-15T16:30:13.676Z,97534.94
2022-09-15T16:32:41.310Z,97541.44
2022-09-15T16:35:36.415Z,97544.34
2022-09-15T16:38:03.608Z,97541.81
2022-09-15T16:40:30.845Z,97552.72
2022-09-15T16:42:57.735Z,97545.81
2022-09-15T16:45:36.524Z,97541.19
2022-09-15T16:48:07.047Z,97543.28
2022-09-15T16:50:33.907Z,97544.31
2022-09-15T16:53:00.772Z,97547.63
2022-09-15T16:55:36.532Z,97550.53
2022-09-15T16:58:04.343Z,97559.38
2022-09-15T17:00:33.057Z,97548.88
2022-09-15T17:02:59.979Z,97553.47
2022-09-15T17:05:38.104Z,97554.50
2022-09-15T17:08:06.444Z,97545.69
2022-09-15T17:10:33.575Z,97546.91
2022-09-15T17:13:00.958Z,97553.41
2022-09-15T17:15:30.151Z,97558.00
2022-09-15T17:17:57.287Z,97555.28
2022-09-15T17:20:25.085Z,97562.19
2022-09-15T17:22:52.811Z,97557.75
2022-09-15T17:25:27.674Z,97558.59
2022-09-15T17:27:55.215Z,97561.75
2022-09-15T17:30:24.223Z,97563.59
2022-09-15T17:32:51.520Z,97557.47
2022-09-15T17:35:24.627Z,97562.28
2022-09-15T17:37:52.134Z,97555.97
2022-09-15T17:40:20.321Z,97556.19
2022-09-15T17:42:47.873Z,97547.53
2022-09-15T17:45:30.246Z,97546.69
2022-09-15T17:47:57.473Z,97556.97
2022-09-15T17:50:26.151Z,97553.41
2022-09-15T17:52:53.070Z,97565.13
2022-09-15T17:55:26.906Z,97569.28
2022-09-15T17:57:53.779Z,97565.72
2022-09-15T18:00:20.878Z,97570.97
2022-09-15T18:02:49.842Z,97581.88
2022-09-15T18:05:20.765Z,97578.25
2022-09-15T18:07:47.621Z,97562.72
2022-09-15T18:10:16.547Z,97559.16
2022-09-15T18:12:46.848Z,97560.94
2022-09-15T18:15:21.384Z,97562.41
2022-09-15T18:17:49.254Z,97564.94
2022-09-15T18:20:17.997Z,97573.28
2022-09-15T18:22:45.526Z,97567.19
2022-09-15T18:25:18.793Z,97575.75
2022-09-15T18:27:46.602Z,97573.88
2022-09-15T18:30:13.708Z,97579.50
2022-09-15T18:32:40.593Z,97572.84
2022-09-15T18:35:09.849Z,97577.84
2022-09-15T18:37:37.240Z,97580.94
2022-09-15T18:40:07.401Z,97582.81
2022-09-15T18:42:34.386Z,97585.94
2022-09-15T18:45:01.545Z,97585.56
2022-09-15T18:47:28.442Z,97578.78
2022-09-15T18:49:55.346Z,97584.41
2022-09-15T18:52:22.491Z,97594.66
2022-09-15T18:54:49.286Z,97592.31
2022-09-15T18:57:16.168Z,97589.59
2022-09-15T18:59:43.206Z,97588.94
2022-09-15T19:02:12.007Z,97585.84
2022-09-15T19:04:40.714Z,97599.66
2022-09-15T19:07:11.559Z,97603.41
2022-09-15T19:09:38.433Z,97605.94
2022-09-15T19:12:05.458Z,97597.97
2022-09-15T19:14:32.545Z,97601.72
2022-09-15T19:16:59.531Z,97605.47
2022-09-15T19:19:26.550Z,97608.59
2022-09-15T19:21:53.598Z,97619.47
2022-09-15T19:24:20.434Z,97610.47
2022-09-15T19:26:47.307Z,97611.69
2022-09-15T19:29:15.562Z,97604.56
2022-09-15T19:31:42.902Z,97596.56
2022-09-15T19:34:09.741Z,97604.94
2022-09-15T19:36:36.838Z,97605.31
2022-09-15T19:39:04.045Z,97605.50
2022-09-15T19:41:30.952Z,97605.50
2022-09-15T19:44:00.889Z,97606.75
2022-09-15T19:46:27.929Z,97610.66
2022-09-15T19:48:54.928Z,97618.00
2022-09-15T19:51:22.324Z,97619.03
2022-09-15T19:53:49.155Z,97625.72
2022-09-15T19:56:17.671Z,97619.22
2022-09-15T19:58:45.718Z,97622.13
2022-09-15T20:01:12.701Z,97625.88
2022-09-15T20:06:27.607Z,97616.41
2022-09-15T20:09:00.909Z,97605.75
2022-09-15T20:11:29.035Z,97626.13
2022-09-15T20:13:56.639Z,97615.53
2022-09-15T20:16:24.796Z,97614.69
2022-09-15T20:18:53.325Z,97613.81
2022-09-15T20:21:48.814Z,97620.88
2022-09-15T20:24:16.729Z,97616.25
2022-09-15T20:26:44.374Z,97619.44
2022-09-15T20:29:14.870Z,97615.06
2022-09-15T20:31:43.156Z,97621.53
2022-09-15T20:34:10.551Z,97609.78
2022-09-15T20:36:39.309Z,97609.97
2022-09-15T20:39:10.926Z,97612.59
2022-09-15T20:41:38.434Z,97625.28
2022-09-15T20:44:09.778Z,97629.31
2022-09-15T20:46:37.371Z,97633.44
2022-09-15T20:49:05.422Z,97635.47
2022-09-15T20:51:34.053Z,97637.19
2022-09-15T20:54:02.553Z,97639.59
2022-09-15T20:56:30.777Z,97642.41
2022-09-15T20:58:58.857Z,97642.41
2022-09-15T21:01:34.283Z,97640.16
2022-09-15T21:04:01.906Z,97645.31
2022-09-15T21:06:29.357Z,97644.19
2022-09-15T21:08:57.246Z,97643.13
2022-09-15T21:11:25.354Z,97649.50
2022-09-15T21:13:52.682Z,97655.41
2022-09-15T21:16:20.931Z,97663.47
2022-09-15T21:18:48.094Z,97659.63
2022-09-15T21:21:18.945Z,97661.75
2022-09-15T21:23:47.480Z,97663.47
2022-09-15T21:26:18.962Z,97667.38
2022-09-15T21:28:46.224Z,97682.22
2022-09-15T21:31:17.944Z,97678.34
2022-09-15T21:33:45.473Z,97672.22
2022-09-15T21:36:15.325Z,97673.28
2022-09-15T21:38:43.989Z,97677.84
2022-09-15T21:41:13.801Z,97678.41
2022-09-15T21:43:41.748Z,97684.50
2022-09-15T21:46:11.942Z,97684.56
2022-09-15T21:48:39.145Z,97690.84
2022-09-15T21:51:06.664Z,97699.16
2022-09-15T21:53:35.006Z,97694.28
2022-09-15T21:56:03.211Z,97703.31
2022-09-15T21:58:37.914Z,97702.09
2022-09-15T22:01:25.898Z,97707.53
2022-09-15T22:03:55.026Z,97702.63
2022-09-15T22:06:27.517Z,97709.09
2022-09-15T22:08:55.135Z,97713.34
2022-09-15T22:11:22.748Z,97712.97
2022-09-15T22:13:49.661Z,97720.13
2022-09-15T22:16:18.374Z,97715.22
2022-09-15T22:18:45.335Z,97724.56
2022-09-15T22:21:16.123Z,97719.47
2022-09-15T22:23:43.785Z,97719.47
2022-09-15T22:26:22.032Z,97719.31
2022-09-15T22:28:49.375Z,97721.19
2022-09-15T22:31:17.241Z,97723.59
2022-09-15T22:33:44.452Z,97724.59
2022-09-15T22:36:19.136Z,97734.63
2022-09-15T22:38:46.264Z,97736.31
2022-09-15T22:41:15.099Z,97733.59
2022-09-15T22:43:43.059Z,97736.34
2022-09-15T22:46:10.383Z,97733.66
2022-09-15T22:48:43.021Z,97731.47
2022-09-15T22:51:11.143Z,97728.94
2022-09-15T22:53:38.375Z,97727.03
2022-09-15T22:56:23.288Z,97739.09
2022-09-15T22:58:50.512Z,97736.59
2022-09-15T23:01:24.776Z,97736.22
2022-09-15T23:03:55.779Z,97736.72
2022-09-15T23:06:22.856Z,97740.81
2022-09-15T23:08:57.512Z,97731.28
2022-09-15T23:11:25.444Z,97735.19
2022-09-15T23:13:52.692Z,97737.41
2022-09-15T23:16:19.728Z,97732.69
2022-09-15T23:18:46.782Z,97733.38
2022-09-15T23:21:14.258Z,97736.09
2022-09-15T23:23:43.223Z,97737.81
2022-09-15T23:26:11.532Z,97748.97
2022-09-15T23:28:39.249Z,97742.06
2022-09-15T23:31:06.277Z,97740.03
2022-09-15T23:33:33.389Z,97742.22
2022-09-15T23:36:03.553Z,97746.81
2022-09-15T23:38:30.527Z,97739.19
2022-09-15T23:40:57.764Z,97752.78
2022-09-15T23:43:24.736Z,97743.25
2022-09-15T23:45:51.580Z,97742.91
2022-09-15T23:48:18.740Z,97751.06
2022-09-15T23:50:45.674Z,97754.78
2022-09-15T23:53:12.576Z,97757.88
2022-09-15T23:55:39.673Z,97761.94
2022-09-15T23:58:06.613Z,97757.34
